sensor_id;sensor_type;location;lat;lon;timestamp;temperature;humidity
33011;DHT22;19370;48.562;9.196;2022-07-23T00:01:35;21.10;99.90
33011;DHT22;19370;48.562;9.196;2022-07-23T00:04:00;21.20;99.90
33011;DHT22;19370;48.562;9.196;2022-07-23T00:06:26;21.20;99.90
33011;DHT22;19370;48.562;9.196;2022-07-23T00:08:52;21.20;99.90
33011;DHT22;19370;48.562;9.196;2022-07-23T00:11:19;21.10;99.90
33011;DHT22;19370;48.562;9.196;2022-07-23T00:13:45;21.10;99.90
33011;DHT22;19370;48.562;9.196;2022-07-23T00:16:11;21.20;99.90
33011;DHT22;19370;48.562;9.196;2022-07-23T00:18:37;21.30;99.90
33011;DHT22;19370;48.562;9.196;2022-07-23T00:21:03;21.40;99.90
33011;DHT22;19370;48.562;9.196;2022-07-23T00:23:29;21.50;99.90
33011;DHT22;19370;48.562;9.196;2022-07-23T00:25:56;21.60;99.90
33011;DHT22;19370;48.562;9.196;2022-07-23T00:28:22;21.60;99.90
33011;DHT22;19370;48.562;9.196;2022-07-23T00:30:48;21.60;99.90
33011;DHT22;19370;48.562;9.196;2022-07-23T00:33:14;21.70;99.90
33011;DHT22;19370;48.562;9.196;2022-07-23T00:35:40;21.70;99.90
33011;DHT22;19370;48.562;9.196;2022-07-23T00:38:08;21.80;99.90
33011;DHT22;19370;48.562;9.196;2022-07-23T00:40:35;21.80;99.90
33011;DHT22;19370;48.562;9.196;2022-07-23T00:43:05;21.80;99.90
33011;DHT22;19370;48.562;9.196;2022-07-23T00:45:31;21.80;99.90
33011;DHT22;19370;48.562;9.196;2022-07-23T00:47:57;21.70;99.90
33011;DHT22;19370;48.562;9.196;2022-07-23T00:50:23;21.70;99.90
33011;DHT22;19370;48.562;9.196;2022-07-23T00:52:49;21.70;99.90
33011;DHT22;19370;48.562;9.196;2022-07-23T00:55:15;21.70;99.90
33011;DHT22;19370;48.562;9.196;2022-07-23T00:57:41;21.70;99.90
33011;DHT22;19370;48.562;9.196;2022-07-23T01:00:10;21.60;99.90
33011;DHT22;19370;48.562;9.196;2022-07-23T01:02:36;21.50;99.90
33011;DHT22;19370;48.562;9.196;2022-07-23T01:05:02;21.50;99.90
33011;DHT22;19370;48.562;9.196;2022-07-23T01:07:28;21.50;99.90
33011;DHT22;19370;48.562;9.196;2022-07-23T01:09:54;21.30;99.90
33011;DHT22;19370;48.562;9.196;2022-07-23T01:12:20;21.30;99.90
33011;DHT22;19370;48.562;9.196;2022-07-23T01:14:56;21.30;99.90
33011;DHT22;19370;48.562;9.196;2022-07-23T01:17:22;21.20;99.90
33011;DHT22;19370;48.562;9.196;2022-07-23T01:19:49;21.20;99.90
33011;DHT22;19370;48.562;9.196;2022-07-23T01:22:15;21.20;99.90
33011;DHT22;19370;48.562;9.196;2022-07-23T01:24:42;21.10;99.90
33011;DHT22;19370;48.562;9.196;2022-07-23T01:27:08;21.00;99.90
33011;DHT22;19370;48.562;9.196;2022-07-23T01:29:34;21.10;99.90
33011;DHT22;19370;48.562;9.196;2022-07-23T01:31:59;21.10;99.90
33011;DHT22;19370;48.562;9.196;2022-07-23T01:34:25;21.00;99.90
33011;DHT22;19370;48.562;9.196;2022-07-23T01:36:51;21.00;99.90
33011;DHT22;19370;48.562;9.196;2022-07-23T01:39:17;21.00;99.90
33011;DHT22;19370;48.562;9.196;2022-07-23T01:41:42;21.10;99.90
33011;DHT22;19370;48.562;9.196;2022-07-23T01:44:08;21.10;99.90
33011;DHT22;19370;48.562;9.196;2022-07-23T01:46:34;21.10;99.90
33011;DHT22;19370;48.562;9.196;2022-07-23T01:49:00;21.10;99.90
33011;DHT22;19370;48.562;9.196;2022-07-23T01:51:26;21.10;99.90
33011;DHT22;19370;48.562;9.196;2022-07-23T01:53:52;21.20;99.90
33011;DHT22;19370;48.562;9.196;2022-07-23T01:56:17;21.20;99.90
33011;DHT22;19370;48.562;9.196;2022-07-23T01:58:47;21.20;99.90
33011;DHT22;19370;48.562;9.196;2022-07-23T02:01:12;21.30;99.90
33011;DHT22;19370;48.562;9.196;2022-07-23T02:03:41;21.30;99.90
33011;DHT22;19370;48.562;9.196;2022-07-23T02:06:07;21.30;99.90
33011;DHT22;19370;48.562;9.196;2022-07-23T02:08:32;21.30;99.90
33011;DHT22;19370;48.562;9.196;2022-07-23T02:10:58;21.30;99.90
33011;DHT22;19370;48.562;9.196;2022-07-23T02:13:24;21.20;99.90
33011;DHT22;19370;48.562;9.196;2022-07-23T02:15:49;21.30;99.90
33011;DHT22;19370;48.562;9.196;2022-07-23T02:18:15;21.30;99.90
33011;DHT22;19370;48.562;9.196;2022-07-23T02:20:42;21.30;99.90
33011;DHT22;19370;48.562;9.196;2022-07-23T02:23:07;21.20;99.90
33011;DHT22;19370;48.562;9.196;2022-07-23T02:25:33;21.20;99.90
33011;DHT22;19370;48.562;9.196;2022-07-23T02:27:59;21.20;99.90
33011;DHT22;19370;48.562;9.196;2022-07-23T02:30:28;21.20;99.90
33011;DHT22;19370;48.562;9.196;2022-07-23T02:32:54;21.30;99.90
33011;DHT22;19370;48.562;9.196;2022-07-23T02:35:20;21.20;99.90
33011;DHT22;19370;48.562;9.196;2022-07-23T02:37:45;21.20;99.90
33011;DHT22;19370;48.562;9.196;2022-07-23T02:40:12;21.10;99.90
33011;DHT22;19370;48.562;9.196;2022-07-23T02:42:37;21.10;99.90
33011;DHT22;19370;48.562;9.196;2022-07-23T02:45:03;21.10;99.90
33011;DHT22;19370;48.562;9.196;2022-07-23T02:47:29;21.10;99.90
33011;DHT22;19370;48.562;9.196;2022-07-23T02:49:57;21.10;99.90
33011;DHT22;19370;48.562;9.196;2022-07-23T02:52:23;21.20;99.90
33011;DHT22;19370;48.562;9.196;2022-07-23T02:54:48;21.10;99.90
33011;DHT22;19370;48.562;9.196;2022-07-23T02:57:14;21.20;99.90
33011;DHT22;19370;48.562;9.196;2022-07-23T02:59:39;21.20;99.90
33011;DHT22;19370;48.562;9.196;2022-07-23T03:02:05;21.20;99.90
33011;DHT22;19370;48.562;9.196;2022-07-23T03:04:31;21.20;99.90
33011;DHT22;19370;48.562;9.196;2022-07-23T03:06:56;21.20;99.90
33011;DHT22;19370;48.562;9.196;2022-07-23T03:09:22;21.30;99.90
33011;DHT22;19370;48.562;9.196;2022-07-23T03:11:48;21.20;99.90
33011;DHT22;19370;48.562;9.196;2022-07-23T03:14:14;21.30;99.90
33011;DHT22;19370;48.562;9.196;2022-07-23T03:16:41;21.30;99.90
33011;DHT22;19370;48.562;9.196;2022-07-23T03:19:07;21.30;99.90
33011;DHT22;19370;48.562;9.196;2022-07-23T03:21:33;21.20;99.90
33011;DHT22;19370;48.562;9.196;2022-07-23T03:24:00;21.20;99.90
33011;DHT22;19370;48.562;9.196;2022-07-23T03:26:25;21.10;99.90
33011;DHT22;19370;48.562;9.196;2022-07-23T03:28:51;21.00;99.90
33011;DHT22;19370;48.562;9.196;2022-07-23T03:31:17;21.00;99.90
33011;DHT22;19370;48.562;9.196;2022-07-23T03:33:43;20.90;99.90
33011;DHT22;19370;48.562;9.196;2022-07-23T03:36:09;20.90;99.90
33011;DHT22;19370;48.562;9.196;2022-07-23T03:38:35;20.90;99.90
33011;DHT22;19370;48.562;9.196;2022-07-23T03:41:00;20.80;99.90
33011;DHT22;19370;48.562;9.196;2022-07-23T03:43:26;20.80;99.90
33011;DHT22;19370;48.562;9.196;2022-07-23T03:45:52;20.70;99.90
33011;DHT22;19370;48.562;9.196;2022-07-23T03:48:18;20.70;99.90
33011;DHT22;19370;48.562;9.196;2022-07-23T03:50:43;20.60;99.90
33011;DHT22;19370;48.562;9.196;2022-07-23T03:53:09;20.60;99.90
33011;DHT22;19370;48.562;9.196;2022-07-23T03:55:35;20.60;99.90
33011;DHT22;19370;48.562;9.196;2022-07-23T03:58:01;20.50;99.90
33011;DHT22;19370;48.562;9.196;2022-07-23T04:00:27;20.50;99.90
33011;DHT22;19370;48.562;9.196;2022-07-23T04:02:52;20.60;99.90
33011;DHT22;19370;48.562;9.196;2022-07-23T04:05:18;20.50;99.90
33011;DHT22;19370;48.562;9.196;2022-07-23T04:07:44;20.50;99.90
33011;DHT22;19370;48.562;9.196;2022-07-23T04:10:09;20.60;99.90
33011;DHT22;19370;48.562;9.196;2022-07-23T04:12:35;20.70;99.90
33011;DHT22;19370;48.562;9.196;2022-07-23T04:15:01;20.80;99.90
33011;DHT22;19370;48.562;9.196;2022-07-23T04:17:26;20.70;99.90
33011;DHT22;19370;48.562;9.196;2022-07-23T04:19:53;20.80;99.90
33011;DHT22;19370;48.562;9.196;2022-07-23T04:22:19;20.70;99.90
33011;DHT22;19370;48.562;9.196;2022-07-23T04:24:44;20.70;99.90
33011;DHT22;19370;48.562;9.196;2022-07-23T04:27:10;20.70;99.90
33011;DHT22;19370;48.562;9.196;2022-07-23T04:29:36;20.70;99.90
33011;DHT22;19370;48.562;9.196;2022-07-23T04:32:02;20.70;99.90
33011;DHT22;19370;48.562;9.196;2022-07-23T04:34:27;20.80;99.90
33011;DHT22;19370;48.562;9.196;2022-07-23T04:36:53;20.90;99.90
33011;DHT22;19370;48.562;9.196;2022-07-23T04:39:19;20.90;99.90
33011;DHT22;19370;48.562;9.196;2022-07-23T04:41:46;20.90;99.90
33011;DHT22;19370;48.562;9.196;2022-07-23T04:44:12;20.90;99.90
33011;DHT22;19370;48.562;9.196;2022-07-23T04:46:37;20.90;99.90
33011;DHT22;19370;48.562;9.196;2022-07-23T04:49:03;20.90;99.90
33011;DHT22;19370;48.562;9.196;2022-07-23T04:51:29;21.00;99.90
33011;DHT22;19370;48.562;9.196;2022-07-23T04:53:55;21.10;99.90
33011;DHT22;19370;48.562;9.196;2022-07-23T04:56:21;21.10;99.90
33011;DHT22;19370;48.562;9.196;2022-07-23T04:58:46;21.10;99.90
33011;DHT22;19370;48.562;9.196;2022-07-23T05:01:12;21.30;99.90
33011;DHT22;19370;48.562;9.196;2022-07-23T05:03:38;21.30;99.90
33011;DHT22;19370;48.562;9.196;2022-07-23T05:06:04;21.30;99.90
33011;DHT22;19370;48.562;9.196;2022-07-23T05:08:29;21.20;99.90
33011;DHT22;19370;48.562;9.196;2022-07-23T05:10:55;21.20;99.90
33011;DHT22;19370;48.562;9.196;2022-07-23T05:13:21;21.00;99.90
33011;DHT22;19370;48.562;9.196;2022-07-23T05:15:47;21.00;99.90
33011;DHT22;19370;48.562;9.196;2022-07-23T05:18:13;20.80;99.90
33011;DHT22;19370;48.562;9.196;2022-07-23T05:20:38;20.70;99.90
33011;DHT22;19370;48.562;9.196;2022-07-23T05:23:04;20.70;99.90
33011;DHT22;19370;48.562;9.196;2022-07-23T05:25:30;20.70;99.90
33011;DHT22;19370;48.562;9.196;2022-07-23T05:27:55;20.80;99.90
33011;DHT22;19370;48.562;9.196;2022-07-23T05:30:21;20.90;99.90
33011;DHT22;19370;48.562;9.196;2022-07-23T05:32:47;21.00;99.90
33011;DHT22;19370;48.562;9.196;2022-07-23T05:35:13;20.90;99.90
33011;DHT22;19370;48.562;9.196;2022-07-23T05:37:39;20.80;99.90
33011;DHT22;19370;48.562;9.196;2022-07-23T05:40:08;20.70;99.90
33011;DHT22;19370;48.562;9.196;2022-07-23T05:42:38;20.70;99.90
33011;DHT22;19370;48.562;9.196;2022-07-23T05:45:05;20.70;99.90
33011;DHT22;19370;48.562;9.196;2022-07-23T05:50:06;20.90;99.90
33011;DHT22;19370;48.562;9.196;2022-07-23T05:52:32;20.90;99.90
33011;DHT22;19370;48.562;9.196;2022-07-23T05:54:57;20.90;99.90
33011;DHT22;19370;48.562;9.196;2022-07-23T05:57:23;20.90;99.90
33011;DHT22;19370;48.562;9.196;2022-07-23T05:59:49;21.00;99.90
33011;DHT22;19370;48.562;9.196;2022-07-23T06:02:14;21.00;99.90
33011;DHT22;19370;48.562;9.196;2022-07-23T06:04:40;21.00;99.90
33011;DHT22;19370;48.562;9.196;2022-07-23T06:07:06;21.10;99.90
33011;DHT22;19370;48.562;9.196;2022-07-23T06:09:31;21.20;99.90
33011;DHT22;19370;48.562;9.196;2022-07-23T06:11:57;21.30;99.90
33011;DHT22;19370;48.562;9.196;2022-07-23T06:14:23;21.30;99.90
33011;DHT22;19370;48.562;9.196;2022-07-23T06:16:48;21.40;99.90
33011;DHT22;19370;48.562;9.196;2022-07-23T06:19:14;21.60;99.90
33011;DHT22;19370;48.562;9.196;2022-07-23T06:21:40;21.70;99.90
33011;DHT22;19370;48.562;9.196;2022-07-23T06:24:06;21.80;99.90
33011;DHT22;19370;48.562;9.196;2022-07-23T06:26:31;21.90;99.90
33011;DHT22;19370;48.562;9.196;2022-07-23T06:28:57;22.00;99.90
33011;DHT22;19370;48.562;9.196;2022-07-23T06:31:23;22.00;99.90
33011;DHT22;19370;48.562;9.196;2022-07-23T06:33:49;22.00;99.90
33011;DHT22;19370;48.562;9.196;2022-07-23T06:36:15;22.00;99.90
33011;DHT22;19370;48.562;9.196;2022-07-23T06:38:41;22.00;99.90
33011;DHT22;19370;48.562;9.196;2022-07-23T06:41:06;22.10;99.90
33011;DHT22;19370;48.562;9.196;2022-07-23T06:43:32;22.20;99.90
33011;DHT22;19370;48.562;9.196;2022-07-23T06:45:58;22.30;99.90
33011;DHT22;19370;48.562;9.196;2022-07-23T06:48:24;22.30;99.90
33011;DHT22;19370;48.562;9.196;2022-07-23T06:50:49;22.20;99.90
33011;DHT22;19370;48.562;9.196;2022-07-23T06:53:17;22.30;99.90
33011;DHT22;19370;48.562;9.196;2022-07-23T06:55:43;22.30;99.90
33011;DHT22;19370;48.562;9.196;2022-07-23T06:58:09;22.40;99.90
33011;DHT22;19370;48.562;9.196;2022-07-23T07:00:35;22.40;99.90
33011;DHT22;19370;48.562;9.196;2022-07-23T07:03:01;22.50;99.90
33011;DHT22;19370;48.562;9.196;2022-07-23T07:05:27;22.60;99.90
33011;DHT22;19370;48.562;9.196;2022-07-23T07:07:56;22.60;99.90
33011;DHT22;19370;48.562;9.196;2022-07-23T07:10:22;22.60;99.90
33011;DHT22;19370;48.562;9.196;2022-07-23T07:12:48;22.60;99.90
33011;DHT22;19370;48.562;9.196;2022-07-23T07:15:14;22.60;99.90
33011;DHT22;19370;48.562;9.196;2022-07-23T07:17:39;22.70;99.90
33011;DHT22;19370;48.562;9.196;2022-07-23T07:20:06;22.70;99.90
33011;DHT22;19370;48.562;9.196;2022-07-23T07:22:31;22.80;99.90
33011;DHT22;19370;48.562;9.196;2022-07-23T07:24:57;22.90;99.90
33011;DHT22;19370;48.562;9.196;2022-07-23T07:27:23;22.90;99.90
33011;DHT22;19370;48.562;9.196;2022-07-23T07:29:49;23.00;99.90
33011;DHT22;19370;48.562;9.196;2022-07-23T07:32:14;23.10;99.90
33011;DHT22;19370;48.562;9.196;2022-07-23T07:34:40;23.10;99.90
33011;DHT22;19370;48.562;9.196;2022-07-23T07:37:06;23.40;99.90
33011;DHT22;19370;48.562;9.196;2022-07-23T07:39:32;23.60;99.90
33011;DHT22;19370;48.562;9.196;2022-07-23T07:41:57;23.60;99.90
33011;DHT22;19370;48.562;9.196;2022-07-23T07:44:23;23.60;99.90
33011;DHT22;19370;48.562;9.196;2022-07-23T07:46:49;23.60;99.90
33011;DHT22;19370;48.562;9.196;2022-07-23T07:49:15;23.40;99.90
33011;DHT22;19370;48.562;9.196;2022-07-23T07:51:43;23.30;99.90
33011;DHT22;19370;48.562;9.196;2022-07-23T07:54:08;23.30;99.90
33011;DHT22;19370;48.562;9.196;2022-07-23T07:56:34;23.40;99.90
33011;DHT22;19370;48.562;9.196;2022-07-23T07:59:00;23.60;99.90
33011;DHT22;19370;48.562;9.196;2022-07-23T08:01:26;23.80;99.90
33011;DHT22;19370;48.562;9.196;2022-07-23T08:03:52;24.00;99.90
33011;DHT22;19370;48.562;9.196;2022-07-23T08:06:18;24.10;99.90
33011;DHT22;19370;48.562;9.196;2022-07-23T08:08:44;24.40;99.90
33011;DHT22;19370;48.562;9.196;2022-07-23T08:11:09;24.60;99.90
33011;DHT22;19370;48.562;9.196;2022-07-23T08:13:35;24.60;99.90
33011;DHT22;19370;48.562;9.196;2022-07-23T08:16:01;24.60;99.90
33011;DHT22;19370;48.562;9.196;2022-07-23T08:18:26;24.60;99.90
33011;DHT22;19370;48.562;9.196;2022-07-23T08:20:52;24.70;99.90
33011;DHT22;19370;48.562;9.196;2022-07-23T08:23:18;24.80;99.90
33011;DHT22;19370;48.562;9.196;2022-07-23T08:25:45;25.10;99.90
33011;DHT22;19370;48.562;9.196;2022-07-23T08:28:13;25.10;99.90
33011;DHT22;19370;48.562;9.196;2022-07-23T08:30:40;25.20;99.90
33011;DHT22;19370;48.562;9.196;2022-07-23T08:33:09;25.20;99.90
33011;DHT22;19370;48.562;9.196;2022-07-23T08:35:46;25.30;99.90
33011;DHT22;19370;48.562;9.196;2022-07-23T08:38:18;25.30;99.90
33011;DHT22;19370;48.562;9.196;2022-07-23T08:40:50;25.40;99.90
33011;DHT22;19370;48.562;9.196;2022-07-23T08:43:19;25.70;99.90
33011;DHT22;19370;48.562;9.196;2022-07-23T08:45:47;25.90;99.90
33011;DHT22;19370;48.562;9.196;2022-07-23T08:48:18;25.90;99.90
33011;DHT22;19370;48.562;9.196;2022-07-23T08:50:57;25.70;99.90
33011;DHT22;19370;48.562;9.196;2022-07-23T08:53:24;25.50;99.90
33011;DHT22;19370;48.562;9.196;2022-07-23T08:55:53;25.40;99.90
33011;DHT22;19370;48.562;9.196;2022-07-23T08:58:20;25.20;99.90
33011;DHT22;19370;48.562;9.196;2022-07-23T09:00:47;25.30;99.90
33011;DHT22;19370;48.562;9.196;2022-07-23T09:03:18;25.60;99.90
33011;DHT22;19370;48.562;9.196;2022-07-23T09:05:45;25.90;99.90
33011;DHT22;19370;48.562;9.196;2022-07-23T09:08:16;26.00;99.90
33011;DHT22;19370;48.562;9.196;2022-07-23T09:10:58;26.10;99.90
33011;DHT22;19370;48.562;9.196;2022-07-23T09:13:50;26.10;99.90
33011;DHT22;19370;48.562;9.196;2022-07-23T09:16:27;26.30;99.90
33011;DHT22;19370;48.562;9.196;2022-07-23T09:19:00;26.30;99.90
33011;DHT22;19370;48.562;9.196;2022-07-23T09:21:34;26.20;99.90
33011;DHT22;19370;48.562;9.196;2022-07-23T09:24:07;26.20;99.90
33011;DHT22;19370;48.562;9.196;2022-07-23T09:29:11;26.20;99.90
33011;DHT22;19370;48.562;9.196;2022-07-23T09:31:55;26.10;99.90
33011;DHT22;19370;48.562;9.196;2022-07-23T09:34:26;26.00;99.90
33011;DHT22;19370;48.562;9.196;2022-07-23T09:36:57;26.30;99.90
33011;DHT22;19370;48.562;9.196;2022-07-23T09:39:31;26.40;99.90
33011;DHT22;19370;48.562;9.196;2022-07-23T09:42:20;26.50;99.90
33011;DHT22;19370;48.562;9.196;2022-07-23T09:44:54;26.60;99.60
33011;DHT22;19370;48.562;9.196;2022-07-23T09:47:21;26.60;99.90
33011;DHT22;19370;48.562;9.196;2022-07-23T09:50:07;26.80;99.00
33011;DHT22;19370;48.562;9.196;2022-07-23T09:52:45;26.90;99.30
33011;DHT22;19370;48.562;9.196;2022-07-23T09:55:15;27.10;99.50
33011;DHT22;19370;48.562;9.196;2022-07-23T09:57:42;27.20;99.30
33011;DHT22;19370;48.562;9.196;2022-07-23T10:00:11;27.40;99.40
33011;DHT22;19370;48.562;9.196;2022-07-23T10:02:38;27.70;99.90
33011;DHT22;19370;48.562;9.196;2022-07-23T10:05:05;27.70;98.70
33011;DHT22;19370;48.562;9.196;2022-07-23T10:07:37;27.70;98.60
33011;DHT22;19370;48.562;9.196;2022-07-23T10:10:04;27.90;98.10
33011;DHT22;19370;48.562;9.196;2022-07-23T10:12:31;28.10;97.60
33011;DHT22;19370;48.562;9.196;2022-07-23T10:15:00;28.30;96.90
33011;DHT22;19370;48.562;9.196;2022-07-23T10:17:28;28.50;96.10
33011;DHT22;19370;48.562;9.196;2022-07-23T10:19:54;28.60;96.20
33011;DHT22;19370;48.562;9.196;2022-07-23T10:22:37;28.80;96.50
33011;DHT22;19370;48.562;9.196;2022-07-23T10:25:19;28.90;95.20
33011;DHT22;19370;48.562;9.196;2022-07-23T10:33:45;28.30;93.90
33011;DHT22;19370;48.562;9.196;2022-07-23T10:36:34;28.20;94.10
33011;DHT22;19370;48.562;9.196;2022-07-23T10:39:22;28.20;93.30
33011;DHT22;19370;48.562;9.196;2022-07-23T10:41:49;28.20;95.00
33011;DHT22;19370;48.562;9.196;2022-07-23T10:44:21;28.10;96.40
33011;DHT22;19370;48.562;9.196;2022-07-23T10:47:04;28.20;95.00
33011;DHT22;19370;48.562;9.196;2022-07-23T10:49:33;28.20;93.40
33011;DHT22;19370;48.562;9.196;2022-07-23T10:52:25;28.50;93.30
33011;DHT22;19370;48.562;9.196;2022-07-23T10:57:50;29.60;93.50
33011;DHT22;19370;48.562;9.196;2022-07-23T11:00:24;29.60;93.20
33011;DHT22;19370;48.562;9.196;2022-07-23T11:02:52;29.40;92.80
33011;DHT22;19370;48.562;9.196;2022-07-23T11:05:42;29.10;93.70
33011;DHT22;19370;48.562;9.196;2022-07-23T11:10:41;28.00;94.60
33011;DHT22;19370;48.562;9.196;2022-07-23T11:31:57;27.40;94.30
33011;DHT22;19370;48.562;9.196;2022-07-23T11:37:05;27.80;93.40
33011;DHT22;19370;48.562;9.196;2022-07-23T11:39:32;27.90;91.90
33011;DHT22;19370;48.562;9.196;2022-07-23T11:41:59;27.80;91.70
33011;DHT22;19370;48.562;9.196;2022-07-23T11:44:33;28.00;92.10
33011;DHT22;19370;48.562;9.196;2022-07-23T11:47:04;27.80;91.30
33011;DHT22;19370;48.562;9.196;2022-07-23T11:49:30;28.20;90.50
33011;DHT22;19370;48.562;9.196;2022-07-23T11:52:22;28.90;91.70
33011;DHT22;19370;48.562;9.196;2022-07-23T11:54:52;29.50;90.00
33011;DHT22;19370;48.562;9.196;2022-07-23T11:57:19;30.10;89.50
33011;DHT22;19370;48.562;9.196;2022-07-23T11:59:53;30.20;82.70
33011;DHT22;19370;48.562;9.196;2022-07-23T12:02:20;30.40;81.20
33011;DHT22;19370;48.562;9.196;2022-07-23T12:04:48;30.80;82.80
33011;DHT22;19370;48.562;9.196;2022-07-23T12:10:08;31.50;80.60
33011;DHT22;19370;48.562;9.196;2022-07-23T12:12:37;31.70;78.90
33011;DHT22;19370;48.562;9.196;2022-07-23T12:15:04;31.90;77.70
33011;DHT22;19370;48.562;9.196;2022-07-23T12:17:36;32.00;77.20
33011;DHT22;19370;48.562;9.196;2022-07-23T12:20:04;31.70;76.00
33011;DHT22;19370;48.562;9.196;2022-07-23T12:22:40;31.10;75.50
33011;DHT22;19370;48.562;9.196;2022-07-23T12:25:09;30.50;76.20
33011;DHT22;19370;48.562;9.196;2022-07-23T12:27:35;29.90;76.60
33011;DHT22;19370;48.562;9.196;2022-07-23T12:30:18;29.50;78.10
33011;DHT22;19370;48.562;9.196;2022-07-23T12:32:50;29.60;81.40
33011;DHT22;19370;48.562;9.196;2022-07-23T12:35:16;29.90;80.50
33011;DHT22;19370;48.562;9.196;2022-07-23T12:37:43;29.90;78.20
33011;DHT22;19370;48.562;9.196;2022-07-23T12:42:58;30.30;78.00
33011;DHT22;19370;48.562;9.196;2022-07-23T12:45:25;30.90;79.90
33011;DHT22;19370;48.562;9.196;2022-07-23T12:48:00;31.10;79.90
33011;DHT22;19370;48.562;9.196;2022-07-23T12:53:07;30.40;78.80
33011;DHT22;19370;48.562;9.196;2022-07-23T12:55:34;30.20;79.10
33011;DHT22;19370;48.562;9.196;2022-07-23T12:58:08;30.40;80.10
33011;DHT22;19370;48.562;9.196;2022-07-23T13:03:30;30.30;75.30
33011;DHT22;19370;48.562;9.196;2022-07-23T13:05:57;29.60;75.50
33011;DHT22;19370;48.562;9.196;2022-07-23T13:08:25;29.20;75.70
33011;DHT22;19370;48.562;9.196;2022-07-23T13:10:52;29.10;78.30
33011;DHT22;19370;48.562;9.196;2022-07-23T13:13:23;29.20;75.70
33011;DHT22;19370;48.562;9.196;2022-07-23T13:15:49;29.10;79.30
33011;DHT22;19370;48.562;9.196;2022-07-23T13:18:16;29.00;78.30
33011;DHT22;19370;48.562;9.196;2022-07-23T13:20:46;28.70;76.60
33011;DHT22;19370;48.562;9.196;2022-07-23T13:23:12;28.50;80.70
33011;DHT22;19370;48.562;9.196;2022-07-23T13:25:38;28.30;79.30
33011;DHT22;19370;48.562;9.196;2022-07-23T13:28:04;28.00;80.20
33011;DHT22;19370;48.562;9.196;2022-07-23T13:30:30;27.90;82.00
33011;DHT22;19370;48.562;9.196;2022-07-23T13:32:56;27.90;81.40
33011;DHT22;19370;48.562;9.196;2022-07-23T13:35:22;28.20;82.80
33011;DHT22;19370;48.562;9.196;2022-07-23T13:37:48;28.50;82.50
33011;DHT22;19370;48.562;9.196;2022-07-23T13:40:14;28.90;83.30
33011;DHT22;19370;48.562;9.196;2022-07-23T13:42:40;29.10;90.00
33011;DHT22;19370;48.562;9.196;2022-07-23T13:45:06;28.90;88.80
33011;DHT22;19370;48.562;9.196;2022-07-23T13:47:32;28.60;89.50
33011;DHT22;19370;48.562;9.196;2022-07-23T13:49:58;28.40;88.40
33011;DHT22;19370;48.562;9.196;2022-07-23T13:52:23;28.10;88.80
33011;DHT22;19370;48.562;9.196;2022-07-23T13:54:49;27.80;89.20
33011;DHT22;19370;48.562;9.196;2022-07-23T13:57:15;27.70;90.80
33011;DHT22;19370;48.562;9.196;2022-07-23T13:59:41;27.50;91.30
33011;DHT22;19370;48.562;9.196;2022-07-23T14:02:07;27.30;95.70
33011;DHT22;19370;48.562;9.196;2022-07-23T14:04:33;27.10;96.00
33011;DHT22;19370;48.562;9.196;2022-07-23T14:06:59;27.00;96.30
33011;DHT22;19370;48.562;9.196;2022-07-23T14:09:26;27.00;97.40
33011;DHT22;19370;48.562;9.196;2022-07-23T14:11:52;27.30;97.80
33011;DHT22;19370;48.562;9.196;2022-07-23T14:14:18;27.90;97.50
33011;DHT22;19370;48.562;9.196;2022-07-23T14:16:45;28.30;95.60
33011;DHT22;19370;48.562;9.196;2022-07-23T14:19:11;28.90;93.90
33011;DHT22;19370;48.562;9.196;2022-07-23T14:21:37;29.10;92.40
33011;DHT22;19370;48.562;9.196;2022-07-23T14:24:03;29.10;90.50
33011;DHT22;19370;48.562;9.196;2022-07-23T14:26:29;28.90;89.20
33011;DHT22;19370;48.562;9.196;2022-07-23T14:28:55;28.60;87.20
33011;DHT22;19370;48.562;9.196;2022-07-23T14:31:21;28.40;89.30
33011;DHT22;19370;48.562;9.196;2022-07-23T14:33:47;28.50;92.70
33011;DHT22;19370;48.562;9.196;2022-07-23T14:36:12;28.90;92.40
33011;DHT22;19370;48.562;9.196;2022-07-23T14:38:38;29.10;92.10
33011;DHT22;19370;48.562;9.196;2022-07-23T14:41:04;29.10;91.30
33011;DHT22;19370;48.562;9.196;2022-07-23T14:43:32;28.80;90.80
33011;DHT22;19370;48.562;9.196;2022-07-23T14:45:58;28.70;91.00
33011;DHT22;19370;48.562;9.196;2022-07-23T14:48:25;28.80;91.90
33011;DHT22;19370;48.562;9.196;2022-07-23T14:50:51;29.20;91.80
33011;DHT22;19370;48.562;9.196;2022-07-23T14:53:17;29.50;91.30
33011;DHT22;19370;48.562;9.196;2022-07-23T14:55:43;30.00;90.00
33011;DHT22;19370;48.562;9.196;2022-07-23T14:58:09;30.50;91.20
33011;DHT22;19370;48.562;9.196;2022-07-23T15:00:35;31.20;80.20
33011;DHT22;19370;48.562;9.196;2022-07-23T15:03:01;31.70;73.70
33011;DHT22;19370;48.562;9.196;2022-07-23T15:05:27;31.70;71.10
33011;DHT22;19370;48.562;9.196;2022-07-23T15:07:54;31.50;72.80
33011;DHT22;19370;48.562;9.196;2022-07-23T15:10:20;32.20;71.70
33011;DHT22;19370;48.562;9.196;2022-07-23T15:12:46;32.50;72.00
33011;DHT22;19370;48.562;9.196;2022-07-23T15:15:12;32.90;69.70
33011;DHT22;19370;48.562;9.196;2022-07-23T15:17:38;33.40;63.60
33011;DHT22;19370;48.562;9.196;2022-07-23T15:20:05;33.60;61.70
33011;DHT22;19370;48.562;9.196;2022-07-23T15:22:31;33.60;61.20
33011;DHT22;19370;48.562;9.196;2022-07-23T15:24:57;33.90;60.50
33011;DHT22;19370;48.562;9.196;2022-07-23T15:27:23;34.20;57.30
33011;DHT22;19370;48.562;9.196;2022-07-23T15:29:49;34.30;56.80
33011;DHT22;19370;48.562;9.196;2022-07-23T15:32:14;34.30;57.30
33011;DHT22;19370;48.562;9.196;2022-07-23T15:34:40;33.90;56.50
33011;DHT22;19370;48.562;9.196;2022-07-23T15:37:06;33.70;58.60
33011;DHT22;19370;48.562;9.196;2022-07-23T15:39:32;34.00;57.20
33011;DHT22;19370;48.562;9.196;2022-07-23T15:41:59;34.10;57.20
33011;DHT22;19370;48.562;9.196;2022-07-23T15:44:25;34.50;55.50
33011;DHT22;19370;48.562;9.196;2022-07-23T15:46:51;34.70;56.20
33011;DHT22;19370;48.562;9.196;2022-07-23T15:49:18;34.60;56.50
33011;DHT22;19370;48.562;9.196;2022-07-23T15:51:44;33.30;57.70
33011;DHT22;19370;48.562;9.196;2022-07-23T15:54:12;32.00;59.70
33011;DHT22;19370;48.562;9.196;2022-07-23T15:56:37;31.00;63.70
33011;DHT22;19370;48.562;9.196;2022-07-23T15:59:03;30.30;64.80
33011;DHT22;19370;48.562;9.196;2022-07-23T16:01:29;29.80;65.10
33011;DHT22;19370;48.562;9.196;2022-07-23T16:03:58;29.60;64.30
33011;DHT22;19370;48.562;9.196;2022-07-23T16:06:25;29.40;68.20
33011;DHT22;19370;48.562;9.196;2022-07-23T16:08:51;29.10;69.50
33011;DHT22;19370;48.562;9.196;2022-07-23T16:11:17;28.90;70.30
33011;DHT22;19370;48.562;9.196;2022-07-23T16:13:43;28.60;68.30
33011;DHT22;19370;48.562;9.196;2022-07-23T16:16:10;28.60;70.10
33011;DHT22;19370;48.562;9.196;2022-07-23T16:18:37;28.50;71.50
33011;DHT22;19370;48.562;9.196;2022-07-23T16:21:04;28.40;68.10